Time;durP1;ratioP1;P1;durP2;ratioP2;P2;SDS_P1;SDS_P2;PMS_P1;PMS_P2;Temp;Humidity;BMP_temperature;BMP_pressure;BME280_temperature;BME280_humidity;BME280_pressure;Samples;Min_cycle;Max_cycle;Signal;HPM_P1;HPM_P2
2021/06/12 00:00:16;;;;;;;6.10;4.68;;;24.80;51.20;;;;;;6233497;27;80472;-62
2021/06/12 00:03:16;;;;;;;7.05;5.07;;;24.80;51.30;;;;;;6239786;27;80471;-62
2021/06/12 00:06:17;;;;;;;8.05;5.07;;;24.80;51.30;;;;;;6241932;27;81390;-62
2021/06/12 00:09:17;;;;;;;5.47;4.20;;;24.80;51.10;;;;;;6245538;27;82085;-62
2021/06/12 00:12:18;;;;;;;6.68;4.43;;;24.80;50.90;;;;;;6234889;27;82271;-62
2021/06/12 00:15:18;;;;;;;12.23;5.70;;;24.70;51.10;;;;;;6227086;27;82124;-62
2021/06/12 00:18:19;;;;;;;7.63;4.93;;;24.80;51.10;;;;;;6234954;27;80491;-63
2021/06/12 00:21:19;;;;;;;6.43;4.82;;;24.70;51.10;;;;;;6240303;27;81612;-62
2021/06/12 00:24:20;;;;;;;5.85;4.43;;;24.70;51.00;;;;;;6235900;27;80699;-62
2021/06/12 00:27:20;;;;;;;6.35;4.70;;;24.70;50.90;;;;;;6234216;27;81458;-62
2021/06/12 00:30:21;;;;;;;8.65;5.10;;;24.80;50.80;;;;;;6239015;27;80675;-62
2021/06/12 00:33:21;;;;;;;7.03;4.85;;;24.70;50.80;;;;;;6229177;27;80807;-62
2021/06/12 00:36:22;;;;;;;8.07;4.63;;;24.70;50.90;;;;;;6239568;27;80473;-62
2021/06/12 00:39:22;;;;;;;5.88;4.22;;;24.70;51.00;;;;;;6244103;27;81841;-62
2021/06/12 00:42:23;;;;;;;6.88;4.35;;;24.70;51.00;;;;;;6240837;28;80672;-62
2021/06/12 00:45:23;;;;;;;7.18;5.15;;;24.70;50.90;;;;;;6232393;28;80465;-62
2021/06/12 00:48:27;;;;;;;7.82;4.68;;;24.70;51.20;;;;;;6231586;27;80333;-62
2021/06/12 00:51:28;;;;;;;6.57;4.95;;;24.70;50.90;;;;;;6238291;27;80445;-64
2021/06/12 00:54:28;;;;;;;6.50;5.00;;;24.70;50.60;;;;;;6234884;27;80313;-62
2021/06/12 00:57:29;;;;;;;6.25;4.30;;;24.70;50.80;;;;;;6236688;27;80277;-62
2021/06/12 01:00:29;;;;;;;6.30;5.03;;;24.70;50.90;;;;;;6238103;27;82104;-62
2021/06/12 01:03:30;;;;;;;5.55;4.63;;;24.70;50.60;;;;;;6238856;27;80352;-62
2021/06/12 01:06:30;;;;;;;7.30;5.00;;;24.70;50.80;;;;;;6232175;27;80601;-62
2021/06/12 01:09:31;;;;;;;6.93;4.97;;;24.70;50.60;;;;;;6236646;27;80571;-62
2021/06/12 01:12:31;;;;;;;7.15;5.07;;;24.70;50.90;;;;;;6235452;27;80486;-62
2021/06/12 01:15:32;;;;;;;5.55;4.30;;;24.70;50.60;;;;;;6229843;27;81486;-62
2021/06/12 01:18:32;;;;;;;7.50;5.00;;;24.70;50.40;;;;;;6235714;27;84557;-62
2021/06/12 01:21:33;;;;;;;6.38;4.60;;;24.70;50.70;;;;;;6239022;27;81856;-60
2021/06/12 01:24:33;;;;;;;6.55;5.10;;;24.70;50.50;;;;;;6234863;27;80533;-62
2021/06/12 01:27:34;;;;;;;9.32;5.80;;;24.70;50.50;;;;;;6234585;27;80839;-62
2021/06/12 01:30:34;;;;;;;6.15;4.53;;;24.70;50.80;;;;;;6237242;27;80245;-62
2021/06/12 01:33:35;;;;;;;7.63;4.95;;;24.70;50.60;;;;;;6230174;27;81694;-62
2021/06/12 01:36:35;;;;;;;6.35;5.07;;;24.70;50.40;;;;;;6236631;27;80637;-62
2021/06/12 01:39:36;;;;;;;6.90;4.80;;;24.70;50.60;;;;;;6230791;27;80787;-62
2021/06/12 01:42:36;;;;;;;6.88;5.00;;;24.70;50.60;;;;;;6231986;27;81689;-62
2021/06/12 01:45:37;;;;;;;6.80;4.53;;;24.70;50.40;;;;;;6233661;27;83196;-62
2021/06/12 01:48:37;;;;;;;6.78;4.65;;;24.70;50.50;;;;;;6232415;27;81892;-62
2021/06/12 01:51:38;;;;;;;7.22;4.75;;;24.70;50.60;;;;;;6236144;27;82007;-62
2021/06/12 01:54:38;;;;;;;7.35;5.30;;;24.70;50.50;;;;;;6227499;27;80351;-62
2021/06/12 01:57:39;;;;;;;7.50;4.90;;;24.70;50.40;;;;;;6233118;27;80833;-62
2021/06/12 02:00:39;;;;;;;6.65;5.00;;;24.70;50.50;;;;;;6237918;27;80282;-62
2021/06/12 02:03:40;;;;;;;6.43;4.82;;;24.70;50.70;;;;;;6231805;27;81802;-62
2021/06/12 02:06:40;;;;;;;8.93;5.45;;;24.70;50.50;;;;;;6230464;27;80437;-62
2021/06/12 02:09:41;;;;;;;7.93;5.32;;;24.70;50.40;;;;;;6232796;27;80651;-62
2021/06/12 02:12:42;;;;;;;6.15;5.13;;;24.70;50.50;;;;;;6232894;27;80607;-62
2021/06/12 02:15:42;;;;;;;6.32;4.70;;;24.70;50.40;;;;;;6235014;27;80166;-62
2021/06/12 02:18:43;;;;;;;9.15;5.57;;;24.70;50.20;;;;;;6244864;27;80358;-62
2021/06/12 02:21:43;;;;;;;5.97;4.78;;;24.70;50.40;;;;;;6242036;27;81190;-62
2021/06/12 02:24:44;;;;;;;9.75;5.78;;;24.70;50.40;;;;;;6242136;27;80248;-62
2021/06/12 02:27:44;;;;;;;7.28;5.47;;;24.70;50.60;;;;;;6235938;27;80204;-62
2021/06/12 02:30:45;;;;;;;5.93;4.65;;;24.70;50.70;;;;;;6237739;27;80949;-62
2021/06/12 02:33:45;;;;;;;8.15;5.30;;;24.70;50.40;;;;;;6241701;27;80390;-62
2021/06/12 02:36:46;;;;;;;6.88;5.55;;;24.70;50.40;;;;;;6231352;27;80587;-61
2021/06/12 02:39:46;;;;;;;7.43;5.15;;;24.70;50.50;;;;;;6232187;27;80812;-62
2021/06/12 02:42:47;;;;;;;8.68;5.32;;;24.70;50.60;;;;;;6238429;27;80504;-62
2021/06/12 02:45:47;;;;;;;7.00;5.30;;;24.70;50.40;;;;;;6235811;27;80831;-62
2021/06/12 02:48:48;;;;;;;6.60;4.80;;;24.70;50.50;;;;;;6243913;27;80521;-62
2021/06/12 02:51:48;;;;;;;7.03;5.10;;;24.70;50.40;;;;;;6233963;27;80958;-62
2021/06/12 02:54:49;;;;;;;6.32;5.10;;;24.70;50.60;;;;;;6236588;27;82924;-62
2021/06/12 02:57:49;;;;;;;7.78;4.97;;;24.70;50.40;;;;;;6234835;27;81261;-62
2021/06/12 03:00:50;;;;;;;7.43;5.15;;;24.70;50.40;;;;;;6239509;27;80801;-62
2021/06/12 03:03:50;;;;;;;8.25;5.72;;;24.60;50.30;;;;;;6242388;27;81947;-62
2021/06/12 03:06:51;;;;;;;7.55;5.55;;;24.60;50.20;;;;;;6229446;27;81537;-62
2021/06/12 03:09:51;;;;;;;8.43;5.43;;;24.70;50.50;;;;;;6233241;27;80576;-63
2021/06/12 03:12:52;;;;;;;7.65;5.47;;;24.60;50.30;;;;;;6234961;27;80726;-62
2021/06/12 03:15:52;;;;;;;6.75;4.75;;;24.70;50.30;;;;;;6235595;27;80583;-62
2021/06/12 03:18:53;;;;;;;8.15;5.43;;;24.70;50.50;;;;;;6236734;27;80631;-63
2021/06/12 03:21:53;;;;;;;6.53;5.03;;;24.70;50.20;;;;;;6239865;27;80803;-63
2021/06/12 03:24:54;;;;;;;9.55;4.97;;;24.70;50.60;;;;;;6235457;27;80335;-62
2021/06/12 03:27:54;;;;;;;6.88;5.32;;;24.70;50.50;;;;;;6240730;27;80261;-62
2021/06/12 03:30:55;;;;;;;7.68;5.70;;;24.70;50.30;;;;;;6235554;27;80598;-62
2021/06/12 03:33:55;;;;;;;6.70;5.00;;;24.70;50.60;;;;;;6242202;27;80277;-62
2021/06/12 03:36:56;;;;;;;7.25;5.03;;;24.70;50.40;;;;;;6232339;27;81302;-62
2021/06/12 03:39:56;;;;;;;10.20;5.80;;;24.70;50.50;;;;;;6233154;27;81013;-62
2021/06/12 03:42:57;;;;;;;7.40;6.10;;;24.70;50.70;;;;;;6232966;27;80643;-62
2021/06/12 03:45:59;;;;;;;7.10;5.72;;;24.70;50.30;;;;;;6243722;27;80594;-62
2021/06/12 03:48:59;;;;;;;7.20;5.22;;;24.70;50.40;;;;;;6235043;27;80666;-62
2021/06/12 03:52:00;;;;;;;8.95;5.30;;;24.70;50.30;;;;;;6233666;27;80525;-62
2021/06/12 03:55:00;;;;;;;15.27;5.53;;;24.70;50.40;;;;;;6235995;27;80414;-62
2021/06/12 03:58:01;;;;;;;7.20;5.43;;;24.70;50.40;;;;;;6241093;27;80490;-62
2021/06/12 04:01:01;;;;;;;10.13;5.82;;;24.70;50.30;;;;;;6235530;27;80608;-63
2021/06/12 04:04:02;;;;;;;5.80;4.90;;;24.70;50.70;;;;;;6233728;27;80630;-62
2021/06/12 04:07:02;;;;;;;8.52;5.10;;;24.70;50.60;;;;;;6236294;28;91119;-62
2021/06/12 04:10:03;;;;;;;9.73;4.90;;;24.70;50.70;;;;;;6234488;27;80471;-62
2021/06/12 04:13:03;;;;;;;5.60;4.63;;;24.70;50.70;;;;;;6232568;27;81623;-62
2021/06/12 04:16:04;;;;;;;9.25;4.65;;;24.60;50.30;;;;;;6237389;27;80420;-62
2021/06/12 04:19:04;;;;;;;6.78;4.90;;;24.70;50.40;;;;;;6240743;27;80251;-62
2021/06/12 04:22:05;;;;;;;5.82;4.53;;;24.70;50.20;;;;;;6242203;27;81469;-61
2021/06/12 04:25:06;;;;;;;7.82;4.95;;;24.70;50.20;;;;;;6232802;27;83054;-61
2021/06/12 04:28:06;;;;;;;5.57;4.45;;;24.70;50.90;;;;;;6234266;27;81610;-63
2021/06/12 04:31:07;;;;;;;5.55;4.53;;;24.70;50.40;;;;;;6233962;27;80570;-63
2021/06/12 04:34:07;;;;;;;10.88;4.85;;;24.70;49.90;;;;;;6234588;27;87912;-63
2021/06/12 04:37:08;;;;;;;7.20;4.60;;;24.70;49.90;;;;;;6232582;27;83681;-63
2021/06/12 04:40:09;;;;;;;6.32;4.85;;;24.70;49.90;;;;;;6235235;27;80568;-63
2021/06/12 04:43:09;;;;;;;6.60;5.07;;;24.70;49.80;;;;;;6231973;27;81657;-63
2021/06/12 04:46:10;;;;;;;6.55;4.93;;;24.70;49.80;;;;;;6239242;27;80434;-63
2021/06/12 04:49:10;;;;;;;7.07;4.50;;;24.70;50.10;;;;;;6236547;27;81434;-63
2021/06/12 04:52:11;;;;;;;6.60;4.90;;;24.70;49.90;;;;;;6239353;27;80608;-62
2021/06/12 04:55:11;;;;;;;6.88;5.15;;;24.70;49.90;;;;;;6233416;27;81406;-63
2021/06/12 04:58:12;;;;;;;7.38;5.35;;;24.70;50.00;;;;;;6233361;27;80814;-63
2021/06/12 05:01:12;;;;;;;6.95;5.18;;;24.70;50.70;;;;;;6239885;27;83502;-64
2021/06/12 05:04:13;;;;;;;5.38;4.45;;;24.80;50.00;;;;;;6234932;27;81513;-64
2021/06/12 05:07:13;;;;;;;7.65;5.65;;;24.80;50.20;;;;;;6233577;27;80650;-64
2021/06/12 05:10:14;;;;;;;7.03;5.18;;;24.80;50.10;;;;;;6232760;27;80227;-67
2021/06/12 05:13:14;;;;;;;7.55;4.90;;;24.90;50.20;;;;;;6232818;27;80468;-64
2021/06/12 05:16:15;;;;;;;7.75;4.90;;;24.80;50.20;;;;;;6240198;28;83737;-63
2021/06/12 05:19:16;;;;;;;7.75;4.75;;;24.90;50.30;;;;;;6239105;27;80453;-63
2021/06/12 05:22:16;;;;;;;7.20;5.20;;;24.90;50.20;;;;;;6229723;27;80630;-63
2021/06/12 05:25:17;;;;;;;6.65;5.05;;;24.80;50.30;;;;;;6233168;27;80475;-64
2021/06/12 05:28:17;;;;;;;8.15;5.38;;;24.80;50.20;;;;;;6235738;27;80673;-63
2021/06/12 05:31:18;;;;;;;8.77;5.65;;;24.80;50.30;;;;;;6240990;27;81833;-63
2021/06/12 05:34:18;;;;;;;7.85;5.03;;;24.90;50.40;;;;;;6238664;27;80464;-63
2021/06/12 05:37:19;;;;;;;10.10;5.90;;;24.90;50.70;;;;;;6238049;27;80744;-62
2021/06/12 05:40:19;;;;;;;5.97;5.05;;;24.80;50.90;;;;;;6229954;27;80382;-61
2021/06/12 05:43:20;;;;;;;8.30;5.28;;;24.90;50.50;;;;;;6230048;27;80667;-62
2021/06/12 05:46:20;;;;;;;8.10;5.20;;;24.90;50.30;;;;;;6234795;27;82629;-62
2021/06/12 05:49:21;;;;;;;9.65;5.32;;;24.90;50.40;;;;;;6241351;27;80440;-63
2021/06/12 05:52:21;;;;;;;8.27;5.03;;;24.90;50.30;;;;;;6238143;27;80584;-63
2021/06/12 05:55:22;;;;;;;7.40;4.88;;;24.90;50.60;;;;;;6236222;27;80884;-62
2021/06/12 05:58:23;;;;;;;8.40;5.60;;;24.90;50.50;;;;;;6233826;27;80731;-61
2021/06/12 06:01:23;;;;;;;7.07;4.97;;;24.90;50.50;;;;;;6233745;27;81600;-62
2021/06/12 06:04:24;;;;;;;8.40;5.70;;;24.90;50.60;;;;;;6245733;27;83139;-63
2021/06/12 06:07:24;;;;;;;8.32;5.28;;;24.90;50.60;;;;;;6230917;27;80341;-63
2021/06/12 06:10:25;;;;;;;8.20;5.75;;;24.90;50.40;;;;;;6245312;27;80661;-63
2021/06/12 06:13:25;;;;;;;8.07;4.78;;;24.90;50.40;;;;;;6236608;27;81639;-62
2021/06/12 06:16:26;;;;;;;7.07;4.75;;;24.90;50.40;;;;;;6231256;27;81538;-62
2021/06/12 06:19:26;;;;;;;6.47;4.47;;;24.90;50.40;;;;;;6244508;27;82384;-62
2021/06/12 06:22:27;;;;;;;6.97;5.68;;;24.90;50.50;;;;;;6233239;27;80308;-62
2021/06/12 06:25:27;;;;;;;6.47;4.78;;;24.90;50.50;;;;;;6235714;27;80790;-62
2021/06/12 06:28:28;;;;;;;7.13;4.75;;;24.90;50.50;;;;;;6227299;27;80754;-63
2021/06/12 06:31:28;;;;;;;5.78;4.82;;;24.90;50.60;;;;;;6229058;27;80380;-64
2021/06/12 06:34:29;;;;;;;9.57;5.40;;;24.90;51.20;;;;;;6225413;27;80610;-63
2021/06/12 06:37:29;;;;;;;13.65;5.75;;;24.90;50.40;;;;;;6235665;27;80501;-63
2021/06/12 06:40:30;;;;;;;11.05;5.45;;;24.90;50.10;;;;;;6233149;27;80565;-64
2021/06/12 06:43:30;;;;;;;8.68;5.68;;;24.90;50.10;;;;;;6230692;27;80049;-63
2021/06/12 06:46:31;;;;;;;13.02;5.90;;;24.90;50.10;;;;;;6229549;27;80325;-64
2021/06/12 06:49:31;;;;;;;9.82;5.82;;;24.80;49.80;;;;;;6232378;28;80689;-63
2021/06/12 06:52:32;;;;;;;10.55;5.78;;;24.90;50.30;;;;;;6233293;27;80879;-63
2021/06/12 06:55:32;;;;;;;9.30;5.40;;;24.90;50.50;;;;;;6232164;27;82597;-64
2021/06/12 06:58:33;;;;;;;8.80;5.82;;;24.90;50.50;;;;;;6229384;27;81161;-63
2021/06/12 07:01:36;;;;;;;8.45;5.85;;;24.90;50.40;;;;;;6235928;27;80763;-64
2021/06/12 07:04:38;;;;;;;11.80;5.43;;;24.90;51.80;;;;;;6235301;27;82072;-64
2021/06/12 07:07:38;;;;;;;10.55;5.80;;;24.90;52.80;;;;;;6237145;27;80988;-64
2021/06/12 07:10:39;;;;;;;10.07;5.90;;;24.90;51.40;;;;;;6240569;27;81643;-64
2021/06/12 07:13:40;;;;;;;13.65;6.35;;;24.90;51.80;;;;;;6240910;27;80151;-63
2021/06/12 07:16:40;;;;;;;12.55;6.63;;;24.90;52.10;;;;;;6235170;27;80883;-63
2021/06/12 07:19:41;;;;;;;9.77;6.30;;;24.90;51.50;;;;;;6234454;27;81174;-64
2021/06/12 07:22:41;;;;;;;10.82;6.15;;;24.90;53.60;;;;;;6234243;27;81455;-63
2021/06/12 07:25:42;;;;;;;13.70;5.68;;;24.90;52.80;;;;;;6237205;28;80373;-63
2021/06/12 07:28:42;;;;;;;11.25;6.07;;;24.90;52.40;;;;;;6233898;27;84109;-63
2021/06/12 07:31:43;;;;;;;11.75;6.10;;;24.90;53.60;;;;;;6242500;27;84889;-63
2021/06/12 07:34:43;;;;;;;11.38;5.57;;;25.00;53.10;;;;;;6231711;27;82746;-63
2021/06/12 07:37:44;;;;;;;10.18;6.57;;;25.00;53.70;;;;;;6231397;27;80407;-63
2021/06/12 07:40:44;;;;;;;10.50;6.10;;;25.00;53.30;;;;;;6233057;27;80832;-63
2021/06/12 07:43:45;;;;;;;9.25;6.00;;;25.00;53.20;;;;;;6239725;28;80548;-63
2021/06/12 07:46:45;;;;;;;9.68;5.50;;;25.00;52.00;;;;;;6234998;28;80434;-63
2021/06/12 07:49:46;;;;;;;6.85;5.30;;;25.10;52.10;;;;;;6234860;27;80654;-62
2021/06/12 07:52:46;;;;;;;9.73;5.60;;;25.10;52.10;;;;;;6227322;27;81388;-62
2021/06/12 07:55:47;;;;;;;10.00;5.72;;;25.10;52.00;;;;;;6231314;27;80426;-62
2021/06/12 07:58:47;;;;;;;8.82;5.00;;;25.10;52.10;;;;;;6240918;27;83851;-62
2021/06/12 08:01:48;;;;;;;7.75;5.10;;;25.10;52.00;;;;;;6239457;27;80731;-63
2021/06/12 08:04:49;;;;;;;12.88;5.13;;;25.10;52.10;;;;;;6235638;27;80114;-63
2021/06/12 08:07:49;;;;;;;8.57;5.32;;;25.20;52.30;;;;;;6236056;27;81315;-62
2021/06/12 08:10:50;;;;;;;8.80;4.93;;;25.20;52.10;;;;;;6235252;27;81327;-62
2021/06/12 08:13:50;;;;;;;8.35;4.78;;;25.20;51.70;;;;;;6233100;27;80484;-63
2021/06/12 08:16:51;;;;;;;6.47;5.07;;;25.20;51.80;;;;;;6238015;27;80638;-62
2021/06/12 08:19:51;;;;;;;6.43;4.25;;;25.20;50.90;;;;;;6232455;27;80382;-62
2021/06/12 08:22:52;;;;;;;9.10;4.85;;;25.20;50.70;;;;;;6229694;27;80463;-63
2021/06/12 08:25:52;;;;;;;7.78;5.28;;;25.10;50.90;;;;;;6241396;27;80222;-63
2021/06/12 08:28:54;;;;;;;7.32;4.90;;;25.20;51.20;;;;;;6242914;27;80251;-63
2021/06/12 08:31:54;;;;;;;6.05;4.82;;;25.10;52.50;;;;;;6238921;27;81840;-63
2021/06/12 08:34:55;;;;;;;7.43;4.60;;;25.20;51.80;;;;;;6240735;27;80642;-62
2021/06/12 08:37:55;;;;;;;8.98;4.53;;;25.20;51.30;;;;;;6234777;27;80452;-62
2021/06/12 08:40:56;;;;;;;7.60;4.07;;;25.20;51.50;;;;;;6234372;28;80615;-61
2021/06/12 08:43:56;;;;;;;4.90;4.05;;;25.20;50.90;;;;;;6222022;27;80724;-61
2021/06/12 08:46:57;;;;;;;7.18;4.57;;;25.20;51.20;;;;;;6232600;27;80841;-62
2021/06/12 08:49:57;;;;;;;6.00;4.15;;;25.30;51.00;;;;;;6234249;27;80344;-62
2021/06/12 08:52:58;;;;;;;8.88;4.30;;;25.20;51.50;;;;;;6240692;27;81831;-62
2021/06/12 08:55:58;;;;;;;5.43;3.85;;;25.20;51.90;;;;;;6234919;27;80516;-63
2021/06/12 08:58:59;;;;;;;5.30;3.65;;;25.30;51.90;;;;;;6236234;27;80496;-62
2021/06/12 09:01:59;;;;;;;5.72;3.90;;;25.20;51.40;;;;;;6234863;27;80802;-62
2021/06/12 09:05:00;;;;;;;8.32;3.85;;;25.30;51.20;;;;;;6234182;27;81588;-62
2021/06/12 09:08:00;;;;;;;8.40;4.13;;;25.30;51.10;;;;;;6234774;27;80396;-62
2021/06/12 09:11:01;;;;;;;8.90;3.65;;;25.30;51.00;;;;;;6235000;27;80378;-62
2021/06/12 09:14:02;;;;;;;7.95;4.15;;;25.30;51.20;;;;;;6235155;27;81177;-62
2021/06/12 09:17:02;;;;;;;5.22;3.72;;;25.30;51.50;;;;;;6233930;27;81023;-63
2021/06/12 09:20:03;;;;;;;5.80;3.65;;;25.40;51.90;;;;;;6233950;27;80959;-63
2021/06/12 09:23:03;;;;;;;4.97;4.00;;;25.40;52.80;;;;;;6234510;27;81060;-62
2021/06/12 09:26:06;;;;;;;14.57;7.55;;;25.40;54.50;;;;;;6232947;27;81299;-62
2021/06/12 09:29:06;;;;;;;9.18;5.00;;;25.50;55.10;;;;;;6231562;27;80895;-62
2021/06/12 09:32:07;;;;;;;7.07;4.60;;;25.50;53.00;;;;;;6222364;27;80856;-62
2021/06/12 09:35:07;;;;;;;9.20;4.88;;;25.40;52.30;;;;;;6240200;27;82633;-63
2021/06/12 09:38:08;;;;;;;8.05;4.88;;;25.40;52.40;;;;;;6227815;27;81511;-63
2021/06/12 09:41:08;;;;;;;6.38;4.18;;;25.50;52.30;;;;;;6225659;27;81053;-63
2021/06/12 09:44:09;;;;;;;8.75;4.22;;;25.40;51.70;;;;;;6228107;27;81926;-64
2021/06/12 09:47:09;;;;;;;5.75;4.13;;;25.40;51.50;;;;;;6225916;27;81556;-63
2021/06/12 09:50:10;;;;;;;7.78;4.15;;;25.50;51.50;;;;;;6228552;27;80216;-64
2021/06/12 09:53:10;;;;;;;4.90;3.80;;;25.50;51.50;;;;;;6231983;27;81480;-63
2021/06/12 09:56:11;;;;;;;5.93;3.05;;;25.50;51.50;;;;;;6233576;27;80890;-64
2021/06/12 09:59:11;;;;;;;5.35;3.50;;;25.50;51.30;;;;;;6230619;27;81098;-64
2021/06/12 10:02:12;;;;;;;7.40;3.97;;;25.50;51.30;;;;;;6239438;27;80885;-64
2021/06/12 10:05:13;;;;;;;8.75;4.10;;;25.50;51.20;;;;;;6239764;27;80431;-63
2021/06/12 10:08:13;;;;;;;5.03;3.63;;;25.50;50.90;;;;;;6232627;27;80491;-63
2021/06/12 10:11:14;;;;;;;5.03;3.28;;;25.50;51.00;;;;;;6238431;27;81859;-63
2021/06/12 10:14:14;;;;;;;9.30;3.90;;;25.50;50.80;;;;;;6232800;27;80738;-63
2021/06/12 10:17:15;;;;;;;6.93;4.28;;;25.50;51.20;;;;;;6232364;27;80318;-63
2021/06/12 10:20:16;;;;;;;8.38;3.75;;;25.50;50.90;;;;;;6212471;27;81002;-63
2021/06/12 10:23:16;;;;;;;5.07;3.83;;;25.50;50.80;;;;;;6220876;27;81468;-63
2021/06/12 10:26:17;;;;;;;5.82;3.58;;;25.50;50.70;;;;;;6230675;27;80347;-63
2021/06/12 10:29:18;;;;;;;8.55;3.65;;;25.50;50.60;;;;;;6229870;27;80829;-61
2021/06/12 10:32:18;;;;;;;6.32;3.47;;;25.50;50.80;;;;;;6232826;27;80166;-63
2021/06/12 10:35:19;;;;;;;6.07;3.67;;;25.50;50.70;;;;;;6231779;27;80758;-62
2021/06/12 10:38:20;;;;;;;6.60;3.42;;;25.50;50.80;;;;;;6230949;27;80459;-62
2021/06/12 10:41:21;;;;;;;4.78;3.70;;;25.50;50.70;;;;;;6234548;27;82162;-63
2021/06/12 10:44:21;;;;;;;5.38;3.30;;;25.50;51.20;;;;;;6238545;27;80833;-61
2021/06/12 10:47:22;;;;;;;5.63;3.20;;;25.50;50.30;;;;;;6236164;27;80400;-62
2021/06/12 10:50:22;;;;;;;4.95;3.70;;;25.50;50.40;;;;;;6242160;27;84543;-62
2021/06/12 10:53:33;;;;;;;7.78;3.70;;;25.50;49.70;;;;;;6241108;27;81001;-62
2021/06/12 10:56:33;;;;;;;4.68;3.03;;;25.50;49.00;;;;;;6236443;27;84990;-62
2021/06/12 10:59:34;;;;;;;3.97;3.58;;;25.60;48.40;;;;;;6237654;27;80729;-63
2021/06/12 11:02:42;;;;;;;5.97;4.38;;;25.60;48.10;;;;;;6236927;27;80346;-62
2021/06/12 11:05:42;;;;;;;5.68;3.30;;;25.60;48.20;;;;;;6237912;27;80220;-62
2021/06/12 11:08:43;;;;;;;4.50;3.47;;;25.70;46.90;;;;;;6236511;27;81749;-63
2021/06/12 11:11:43;;;;;;;4.03;3.60;;;25.70;46.40;;;;;;6236357;27;80484;-62
2021/06/12 11:14:44;;;;;;;5.90;3.20;;;25.70;46.20;;;;;;6236561;27;81665;-62
2021/06/12 11:17:44;;;;;;;4.90;3.63;;;25.70;46.40;;;;;;6233193;27;80562;-62
2021/06/12 11:20:46;;;;;;;5.10;3.70;;;25.70;46.70;;;;;;6246406;27;80753;-62
2021/06/12 11:23:46;;;;;;;5.60;2.95;;;25.70;46.90;;;;;;6232342;27;81779;-63
2021/06/12 11:26:47;;;;;;;3.58;2.80;;;25.70;47.00;;;;;;6242965;27;80449;-63
2021/06/12 11:29:47;;;;;;;5.65;3.30;;;25.70;46.80;;;;;;6237240;27;82201;-63
2021/06/12 11:32:48;;;;;;;3.90;3.17;;;25.70;47.20;;;;;;6236841;27;80664;-63
2021/06/12 11:35:48;;;;;;;5.50;3.67;;;25.70;47.00;;;;;;6236639;27;80168;-63
2021/06/12 11:38:50;;;;;;;3.70;3.35;;;25.70;46.90;;;;;;6235360;27;80363;-63
2021/06/12 11:41:50;;;;;;;3.55;3.17;;;25.70;46.60;;;;;;6241439;27;80357;-62
2021/06/12 11:44:51;;;;;;;7.55;3.47;;;25.70;46.80;;;;;;6235081;27;80362;-62
2021/06/12 11:47:51;;;;;;;3.08;2.83;;;25.80;47.00;;;;;;6236916;27;80532;-61
2021/06/12 11:50:52;;;;;;;4.68;3.20;;;25.80;47.30;;;;;;6236241;27;83170;-62
2021/06/12 11:53:52;;;;;;;4.70;3.50;;;25.70;47.10;;;;;;6241787;27;80637;-62
2021/06/12 11:56:54;;;;;;;5.18;3.50;;;25.70;47.40;;;;;;6236003;27;81562;-63
2021/06/12 11:59:54;;;;;;;6.32;3.53;;;25.70;47.40;;;;;;6236808;27;80525;-63
2021/06/12 12:02:55;;;;;;;4.45;3.47;;;25.70;47.30;;;;;;6236689;27;80580;-62
2021/06/12 12:05:55;;;;;;;3.65;3.28;;;25.70;47.60;;;;;;6234530;27;80396;-62
2021/06/12 12:08:56;;;;;;;4.38;3.45;;;25.70;47.50;;;;;;6236934;27;80532;-62
2021/06/12 12:11:56;;;;;;;7.63;5.05;;;25.70;47.50;;;;;;6234684;27;83284;-61
2021/06/12 12:14:57;;;;;;;3.95;3.25;;;25.70;47.70;;;;;;6236265;27;80434;-62
2021/06/12 12:17:57;;;;;;;5.05;3.10;;;25.70;47.70;;;;;;6235342;27;84020;-62
2021/06/12 12:20:58;;;;;;;10.02;3.13;;;25.70;48.00;;;;;;6237633;27;80679;-63
2021/06/12 12:23:59;;;;;;;5.53;3.47;;;25.70;48.10;;;;;;6229680;27;80201;-62
2021/06/12 12:27:01;;;;;;;4.13;3.67;;;25.70;48.20;;;;;;6232504;27;80782;-61
2021/06/12 12:30:01;;;;;;;4.78;3.80;;;25.70;48.40;;;;;;6233710;27;80437;-65
2021/06/12 12:33:02;;;;;;;7.65;4.55;;;25.70;48.40;;;;;;6236057;27;80651;-62
2021/06/12 12:36:02;;;;;;;3.95;3.55;;;25.80;48.60;;;;;;6238583;27;82809;-63
2021/06/12 12:39:03;;;;;;;4.07;3.50;;;25.80;48.50;;;;;;6235558;27;80407;-62
2021/06/12 12:42:04;;;;;;;3.95;3.55;;;25.70;48.40;;;;;;6232749;27;80856;-63
2021/06/12 12:45:04;;;;;;;4.20;3.33;;;25.70;48.40;;;;;;6235325;27;80694;-62
2021/06/12 12:48:05;;;;;;;3.60;3.30;;;25.70;48.50;;;;;;6238034;27;81363;-63
2021/06/12 12:51:05;;;;;;;4.43;3.80;;;25.70;48.10;;;;;;6238103;27;80849;-63
2021/06/12 12:54:06;;;;;;;8.48;3.97;;;25.80;48.00;;;;;;6232886;27;81254;-62
2021/06/12 12:57:07;;;;;;;4.35;3.83;;;25.80;47.80;;;;;;6226677;27;81706;-63
2021/06/12 13:00:07;;;;;;;4.43;3.95;;;25.80;47.20;;;;;;6230839;27;82077;-63
2021/06/12 13:03:08;;;;;;;4.38;3.97;;;25.70;47.40;;;;;;6226390;28;80636;-63
2021/06/12 13:06:08;;;;;;;4.45;3.80;;;25.70;47.10;;;;;;6232165;27;80349;-63
2021/06/12 13:09:09;;;;;;;5.90;3.90;;;25.80;47.20;;;;;;6227828;27;81489;-63
2021/06/12 13:12:10;;;;;;;5.97;4.07;;;25.80;47.20;;;;;;6222743;27;81140;-63
2021/06/12 13:15:10;;;;;;;4.05;3.70;;;25.80;47.10;;;;;;6227708;27;80703;-63
2021/06/12 13:18:11;;;;;;;7.70;3.90;;;25.80;47.20;;;;;;6229472;27;80686;-64
2021/06/12 13:21:11;;;;;;;7.68;3.80;;;25.80;47.50;;;;;;6236459;27;80414;-62
2021/06/12 13:24:12;;;;;;;4.00;3.70;;;25.90;47.40;;;;;;6236260;27;80987;-63
2021/06/12 13:27:12;;;;;;;4.15;3.20;;;25.90;47.70;;;;;;6241437;27;80358;-65
2021/06/12 13:30:13;;;;;;;4.18;3.78;;;25.90;47.70;;;;;;6234832;27;81232;-63
2021/06/12 13:33:13;;;;;;;8.07;4.07;;;25.80;47.80;;;;;;6233586;27;81531;-63
2021/06/12 13:36:14;;;;;;;4.50;3.38;;;25.80;47.40;;;;;;6239341;27;80362;-63
2021/06/12 13:39:14;;;;;;;5.40;3.28;;;25.90;47.50;;;;;;6239221;27;80360;-63
2021/06/12 13:42:15;;;;;;;4.57;3.80;;;25.90;47.20;;;;;;6233689;27;83020;-63
2021/06/12 13:45:15;;;;;;;6.20;4.25;;;25.80;46.80;;;;;;6238350;27;80233;-62
2021/06/12 13:48:16;;;;;;;4.40;3.42;;;25.80;46.70;;;;;;6237314;27;80873;-63
2021/06/12 13:51:16;;;;;;;4.07;3.63;;;25.80;46.30;;;;;;6233070;27;80377;-62
2021/06/12 13:54:17;;;;;;;5.15;3.35;;;25.80;45.90;;;;;;6236510;27;80358;-63
2021/06/12 13:57:18;;;;;;;4.93;3.17;;;25.80;45.90;;;;;;6243372;27;84142;-62
2021/06/12 14:00:18;;;;;;;3.30;3.00;;;25.80;45.50;;;;;;6234031;27;80703;-62
2021/06/12 14:03:19;;;;;;;4.15;3.50;;;25.70;45.30;;;;;;6233846;27;83312;-62
2021/06/12 14:06:19;;;;;;;4.97;3.67;;;25.70;45.60;;;;;;6235800;27;80545;-63
2021/06/12 14:09:20;;;;;;;4.15;3.75;;;25.80;45.10;;;;;;6232771;27;83538;-63
2021/06/12 14:12:21;;;;;;;8.13;3.70;;;25.80;45.20;;;;;;6236271;27;80511;-62
2021/06/12 14:15:21;;;;;;;5.50;3.20;;;25.80;45.40;;;;;;6236314;27;80829;-63
2021/06/12 14:18:22;;;;;;;6.57;3.83;;;25.80;45.30;;;;;;6240303;27;83339;-63
2021/06/12 14:21:23;;;;;;;4.13;3.63;;;25.80;45.60;;;;;;6236882;27;81265;-62
2021/06/12 14:24:23;;;;;;;4.65;3.80;;;25.70;45.70;;;;;;6237240;27;80696;-62
2021/06/12 14:27:24;;;;;;;4.60;4.15;;;25.70;46.40;;;;;;6233284;27;81669;-62
2021/06/12 14:30:24;;;;;;;6.70;4.18;;;25.70;45.70;;;;;;6238523;27;80386;-63
2021/06/12 14:33:25;;;;;;;5.03;4.30;;;25.70;45.80;;;;;;6240359;27;80878;-64
2021/06/12 14:36:25;;;;;;;6.35;4.60;;;25.70;45.90;;;;;;6238131;27;80637;-62
2021/06/12 14:39:26;;;;;;;10.77;4.85;;;25.70;46.30;;;;;;6247473;27;81072;-63
2021/06/12 14:42:26;;;;;;;9.80;4.55;;;25.70;46.70;;;;;;6236906;27;80371;-62
2021/06/12 14:45:29;;;;;;;6.20;4.28;;;25.60;47.50;;;;;;6233715;27;80378;-63
2021/06/12 14:48:29;;;;;;;5.53;4.43;;;25.60;47.60;;;;;;6224163;27;81039;-62
2021/06/12 14:51:30;;;;;;;5.65;4.40;;;25.60;48.30;;;;;;6235313;27;80598;-62
2021/06/12 14:54:30;;;;;;;8.40;4.57;;;25.60;49.20;;;;;;6232919;27;81643;-62
2021/06/12 14:57:31;;;;;;;4.75;4.05;;;25.60;49.30;;;;;;6236141;27;81450;-63
2021/06/12 15:00:32;;;;;;;8.60;3.85;;;25.70;49.10;;;;;;6233428;27;81375;-63
2021/06/12 15:03:32;;;;;;;6.75;4.45;;;25.70;49.40;;;;;;6236530;27;80920;-62
2021/06/12 15:06:33;;;;;;;12.10;4.53;;;25.70;49.40;;;;;;6234838;27;82883;-62
2021/06/12 15:09:33;;;;;;;4.88;3.60;;;25.70;49.50;;;;;;6228637;27;81050;-62
2021/06/12 15:12:34;;;;;;;12.93;3.85;;;25.70;49.30;;;;;;6236601;27;80801;-62
2021/06/12 15:15:34;;;;;;;6.88;3.47;;;25.60;49.40;;;;;;6238371;27;80506;-63
2021/06/12 15:18:35;;;;;;;4.40;3.60;;;25.60;49.40;;;;;;6235891;27;80468;-62
2021/06/12 15:21:35;;;;;;;7.05;3.58;;;25.60;49.80;;;;;;6242470;27;81352;-63
2021/06/12 15:24:36;;;;;;;4.88;3.63;;;25.60;50.40;;;;;;6238174;27;80481;-63
2021/06/12 15:27:36;;;;;;;4.65;3.60;;;25.60;50.20;;;;;;6234772;27;80886;-62
2021/06/12 15:30:37;;;;;;;5.43;3.55;;;25.60;50.60;;;;;;6241633;27;80458;-62
2021/06/12 15:33:37;;;;;;;9.32;3.78;;;25.60;50.90;;;;;;6246954;27;81535;-62
2021/06/12 15:36:38;;;;;;;5.40;3.70;;;25.60;51.60;;;;;;6234935;28;80493;-62